Huvudsida
METAR-TAF:

METAR-TAF

Flygplatser :

Tawau, Malaysia

latitud: 04-16N, longitud: 117-53E, höjd: 18 m

Aktuellt väderrapport

Denna rapport gjordes för 5 timmar och 14 minuter sedan, klockan 11:00 UTC
Vind 2 kt varierande vindriktning
Temperatur 28°C
Fuktighet 84%
Tryck 1009 hPa
Sikt 10 km eller mer
Få moln på en höjd av 1700 ft
Brutna moln på en höjd av 30000 ft

METAR: WBKW 181100Z VRB02KT 9999 FEW017 BKN300 28/25 Q1009

Tid: 00:14 (16:14 UTC)

Väderprognos

Denna rapport gjordes för 5 timmar och 14 minuter sedan, klockan 11:00 UTC
Prognos gäller från 18 kl. 12 UTC till 19 kl. 12 UTC
Vind 5 kt från nord
Sikt 10 km eller mer
Få moln på en höjd av 1700 ft

TAF: WBKW 181100Z 1812/1912 35005KT 9999 FEW017

Aktuella väderrapporter och prognoser från 4000 flygplatser (METAR- och TAF-rapporter).

De tillgängliga stationerna syns som gula och röda prickar på kartan.

För musen över prickarna för att se namnen på stationerna.

Klicka sedan för att få väderrapporter och prognoser.

För att ändra kartan: Klicka på de gröna knapparna med ett svart kors på för att zooma in; den gröna knappen med ett streck på för att zooma ut; eller på de gröna pilarna för angränsande kartor.


METAR-TAF: